DEL weather

Indira Gandhi International Airport
New Delhi, Delhi, India

Public forecast

Using degrees Celsius for public forecast. Weather courtesy of forecast.io.

METAR (pilot weather report)

Retrieved 2019/03/23 22:00 UTC (15 minutes ago):

VIDP 232200Z 28005KT 3200 HZ NSC 20/09 Q1012 NOSIG

TAF (pilot weather forecast)

Retrieved 2019/03/23 18:21 UTC (4 hours ago):

TAF VIDP 231700Z 2318/2424 28008KT 3000 HZ NSC BECMG 2400/2402 1500 BR BECMG 2404/2406 3005G15KT 3000 HZ FEW100 BECMG 2408/2410 4000 HZ FEW040 SCT100 BECMG 2415/2422 FEW040CB OVC080 BECMG 2419/2421 35008KT 2500 HZ BR